Biggar, United Kingdom
Current Conditions -  °F | °C
As of 5:20 PM on Friday 28 Nov 2014 (Local Time) from EGPH Reporting Station
Broken Clouds Broken Clouds  
Wind Chill: 45°   Ceiling: 1600
Heat Index: 48°   Visibility: 6mi
Dew Point: 48°   Wind: 8mph
Humidity: 100%   Direction: 60°ENE
Pressure: 29.83"   Gusts: NA
Location:  55.62°N, 3.52°W
Report Text: EGPH 281720Z 06007KT 9999 FEW008 BKN016 09/09 Q1010
Loading
Personal Weather Stations






























Interactive Weather Map New forecast layout! Learn more

10-Day Weather Forecast

Advertisements
Track Severe Weather on mobile